createdAt,value
2023-04-18T00:00:30.869Z,98791.22
2023-04-18T00:03:03.917Z,98788.59
2023-04-18T00:05:31.516Z,98779.94
2023-04-18T00:07:58.611Z,98785.97
2023-04-18T00:10:26.016Z,98784.28
2023-04-18T00:12:52.857Z,98786.88
2023-04-18T00:15:19.717Z,98781.66
2023-04-18T00:17:48.430Z,98790.31
2023-04-18T00:20:15.420Z,98798.09
2023-04-18T00:22:46.768Z,98794.63
2023-04-18T00:25:13.756Z,98785.06
2023-04-18T00:27:41.906Z,98792.88
2023-04-18T00:30:09.453Z,98785.94
2023-04-18T00:32:36.416Z,98796.34
2023-04-18T00:35:08.562Z,98792.03
2023-04-18T00:37:35.680Z,98791.16
2023-04-18T00:40:02.675Z,98786.81
2023-04-18T00:42:29.635Z,98796.34
2023-04-18T00:44:56.465Z,98790.28
2023-04-18T00:47:23.799Z,98792.88
2023-04-18T00:49:50.799Z,98779.91
2023-04-18T00:52:18.654Z,98785.97
2023-04-18T00:54:45.628Z,98790.28
2023-04-18T00:57:13.311Z,98787.69
2023-04-18T00:59:40.843Z,98793.75
2023-04-18T01:02:07.817Z,98787.69
2023-04-18T01:04:35.006Z,98792.00
2023-04-18T01:07:02.677Z,98791.13
2023-04-18T01:09:29.882Z,98789.41
2023-04-18T01:11:57.080Z,98786.75
2023-04-18T01:14:24.146Z,98783.31
2023-04-18T01:16:51.264Z,98778.13
2023-04-18T01:19:18.471Z,98778.13
2023-04-18T01:21:45.648Z,98779.00
2023-04-18T01:24:16.918Z,98781.59
2023-04-18T01:26:45.503Z,98785.91
2023-04-18T01:29:12.520Z,98787.66
2023-04-18T01:31:40.925Z,98781.56
2023-04-18T01:34:08.499Z,98778.97
2023-04-18T01:36:36.575Z,98777.28
2023-04-18T01:39:03.838Z,98785.03
2023-04-18T01:41:32.810Z,98784.16
2023-04-18T01:44:00.726Z,98780.69
2023-04-18T01:46:28.268Z,98770.28
2023-04-18T01:48:55.885Z,98777.19
2023-04-18T01:51:22.887Z,98778.06
2023-04-18T01:53:49.962Z,98777.19
2023-04-18T01:56:16.979Z,98778.06
2023-04-18T01:58:43.946Z,98776.38
2023-04-18T02:01:10.969Z,98789.31
2023-04-18T02:03:37.958Z,98778.06
2023-04-18T02:06:06.281Z,98778.94
2023-04-18T02:08:36.049Z,98786.63
2023-04-18T02:11:03.088Z,98784.06
2023-04-18T02:13:29.988Z,98779.72
2023-04-18T02:15:56.933Z,98780.63
2023-04-18T02:18:25.621Z,98783.22
2023-04-18T02:20:52.827Z,98790.16
2023-04-18T02:23:19.673Z,98782.38
2023-04-18T02:25:46.538Z,98780.59
2023-04-18T02:28:13.562Z,98784.91
2023-04-18T02:30:40.491Z,98787.50
2023-04-18T02:33:07.327Z,98790.09
2023-04-18T02:35:34.378Z,98794.50
2023-04-18T02:38:01.378Z,98786.72
2023-04-18T02:40:28.126Z,98784.94
2023-04-18T02:42:54.905Z,98793.63
2023-04-18T02:45:21.845Z,98785.81
2023-04-18T02:47:55.528Z,98791.88
2023-04-18T02:50:24.185Z,98789.28
2023-04-18T02:52:51.156Z,98791.81
2023-04-18T02:55:18.183Z,98783.22
2023-04-18T02:57:45.057Z,98785.84
2023-04-18T03:00:13.728Z,98789.28
2023-04-18T03:02:40.971Z,98787.53
2023-04-18T03:05:08.676Z,98787.56
2023-04-18T03:07:35.871Z,98790.13
2023-04-18T03:10:02.719Z,98802.25
2023-04-18T03:12:29.886Z,98790.16
2023-04-18T03:14:56.661Z,98795.34
2023-04-18T03:17:23.860Z,98799.66
2023-04-18T03:19:50.793Z,98796.19
2023-04-18T03:22:17.902Z,98803.09
2023-04-18T03:24:44.822Z,98803.09
2023-04-18T03:27:13.341Z,98803.97
2023-04-18T03:29:40.390Z,98805.69
2023-04-18T03:32:07.204Z,98803.97
2023-04-18T03:34:34.272Z,98805.72
2023-04-18T03:37:01.312Z,98810.03
2023-04-18T03:39:28.144Z,98814.34
2023-04-18T03:41:55.013Z,98815.22
2023-04-18T03:44:21.817Z,98816.09
2023-04-18T03:46:48.673Z,98802.22
2023-04-18T03:49:15.540Z,98813.44
2023-04-18T03:51:47.979Z,98808.25
2023-04-18T03:54:16.243Z,98814.28
2023-04-18T03:56:43.847Z,98819.50
2023-04-18T03:59:11.548Z,98822.09
2023-04-18T04:01:38.616Z,98819.50
2023-04-18T04:04:05.669Z,98826.41
2023-04-18T04:06:32.838Z,98832.47
2023-04-18T04:08:59.631Z,98834.22
2023-04-18T04:11:27.006Z,98833.31
2023-04-18T04:13:53.826Z,98839.38
2023-04-18T04:16:20.681Z,98842.81
2023-04-18T04:18:47.732Z,98848.03
2023-04-18T04:21:14.646Z,98847.16
2023-04-18T04:23:46.318Z,98847.16
2023-04-18T04:26:15.244Z,98848.94
2023-04-18T04:28:43.021Z,98856.69
2023-04-18T04:31:10.609Z,98855.88
2023-04-18T04:33:39.192Z,98859.31
2023-04-18T04:36:09.703Z,98866.22
2023-04-18T04:38:38.594Z,98862.81
2023-04-18T04:41:09.505Z,98866.28
2023-04-18T04:43:36.701Z,98865.44
2023-04-18T04:46:04.553Z,98864.63
2023-04-18T04:48:31.532Z,98864.53
2023-04-18T04:50:59.984Z,98872.38
2023-04-18T04:53:28.329Z,98870.66
2023-04-18T04:55:55.328Z,98867.19
2023-04-18T04:58:22.138Z,98871.50
2023-04-18T05:00:50.956Z,98875.84
2023-04-18T05:03:18.569Z,98871.56
2023-04-18T05:05:45.879Z,98876.75
2023-04-18T05:08:12.669Z,98886.34
2023-04-18T05:10:39.829Z,98882.84
2023-04-18T05:13:06.616Z,98887.22
2023-04-18T05:15:33.426Z,98889.81
2023-04-18T05:18:00.358Z,98878.56
2023-04-18T05:20:27.175Z,98885.50
2023-04-18T05:22:53.996Z,98895.91
2023-04-18T05:25:21.010Z,98895.03
2023-04-18T05:27:47.874Z,98900.22
2023-04-18T05:30:14.861Z,98904.59
2023-04-18T05:32:41.953Z,98896.72
2023-04-18T05:35:09.517Z,98901.94
2023-04-18T05:37:36.376Z,98914.97
2023-04-18T05:40:05.266Z,98913.22
2023-04-18T05:42:32.243Z,98907.22
2023-04-18T05:44:59.057Z,98911.56
2023-04-18T05:47:28.631Z,98917.63
2023-04-18T05:49:55.837Z,98919.38
2023-04-18T05:52:22.877Z,98916.72
2023-04-18T05:54:49.952Z,98914.19
2023-04-18T05:57:16.817Z,98920.28
2023-04-18T05:59:44.147Z,98919.47
2023-04-18T06:02:13.824Z,98935.84
2023-04-18T06:04:42.091Z,98925.50
2023-04-18T06:07:10.015Z,98936.75
2023-04-18T06:09:37.010Z,98935.06
2023-04-18T06:12:04.302Z,98935.91
2023-04-18T06:14:31.341Z,98941.06
2023-04-18T06:16:58.433Z,98941.94
2023-04-18T06:19:25.259Z,98941.06
2023-04-18T06:21:53.059Z,98932.19
2023-04-18T06:24:19.978Z,98934.81
2023-04-18T06:26:47.467Z,98946.09
2023-04-18T06:29:14.318Z,98934.72
2023-04-18T06:31:42.360Z,98932.06
2023-04-18T06:34:09.441Z,98947.47
2023-04-18T06:36:36.457Z,98946.59
2023-04-18T06:39:03.673Z,98940.34
2023-04-18T06:41:31.246Z,98954.41
2023-04-18T06:44:02.926Z,98960.50
2023-04-18T06:46:32.026Z,98966.72
2023-04-18T06:48:59.188Z,98962.44
2023-04-18T06:51:26.058Z,98964.94
2023-04-18T06:53:53.904Z,98958.78
2023-04-18T06:56:21.702Z,98959.78
2023-04-18T06:58:50.263Z,98959.03
2023-04-18T07:01:17.267Z,98965.09
2023-04-18T07:03:44.399Z,98967.75
2023-04-18T07:06:11.409Z,98971.25
2023-04-18T07:08:38.396Z,98977.38
2023-04-18T07:11:06.239Z,98967.03
2023-04-18T07:13:33.402Z,98980.94
2023-04-18T07:16:01.503Z,98974.06
2023-04-18T07:18:37.661Z,98980.09
2023-04-18T07:21:07.860Z,98980.94
2023-04-18T07:23:35.663Z,98975.69
2023-04-18T07:26:03.162Z,98980.94
2023-04-18T07:28:31.611Z,98991.44
2023-04-18T07:30:59.223Z,98987.13
2023-04-18T07:33:26.097Z,98991.50
2023-04-18T07:35:56.202Z,98983.72
2023-04-18T07:38:23.494Z,98988.03
2023-04-18T07:41:00.899Z,98997.56
2023-04-18T07:43:27.785Z,99006.25
2023-04-18T07:45:54.981Z,98999.31
2023-04-18T07:48:30.979Z,99000.19
2023-04-18T07:50:57.874Z,99002.78
2023-04-18T07:53:24.757Z,99006.25
2023-04-18T07:55:51.729Z,99007.13
2023-04-18T07:58:18.539Z,99003.66
2023-04-18T08:00:45.425Z,99008.88
2023-04-18T08:03:13.237Z,99021.00
2023-04-18T08:05:41.431Z,99013.16
2023-04-18T08:08:10.321Z,99013.16
2023-04-18T08:10:38.377Z,99018.34
2023-04-18T08:13:05.299Z,99018.34
2023-04-18T08:15:32.956Z,99025.31
2023-04-18T08:18:01.249Z,99020.09
2023-04-18T08:20:28.441Z,99030.50
2023-04-18T08:25:25.173Z,99034.03
2023-04-18T08:27:51.932Z,99026.19
2023-04-18T08:30:18.922Z,99032.28
2023-04-18T08:32:46.029Z,99020.13
2023-04-18T08:35:13.005Z,99024.41
2023-04-18T08:37:39.916Z,99020.97
2023-04-18T08:40:07.700Z,99027.00
2023-04-18T08:42:36.090Z,99024.34
2023-04-18T08:45:04.335Z,99024.41
2023-04-18T08:47:31.447Z,99026.94
2023-04-18T08:49:58.872Z,99021.75
2023-04-18T08:52:28.565Z,99023.53
2023-04-18T08:54:57.264Z,99032.19
2023-04-18T08:57:27.059Z,99030.41
2023-04-18T08:59:55.585Z,99030.38
2023-04-18T09:02:23.538Z,99032.09
2023-04-18T09:04:53.687Z,99032.09
2023-04-18T09:07:30.750Z,99033.88
2023-04-18T09:09:58.049Z,99024.38
2023-04-18T09:12:27.376Z,99025.31
2023-04-18T09:14:59.839Z,99027.09
2023-04-18T09:17:49.580Z,99029.69
2023-04-18T09:20:38.471Z,99037.50
2023-04-18T09:23:14.894Z,99040.94
2023-04-18T09:25:44.534Z,99034.00
2023-04-18T09:28:31.926Z,99029.69
2023-04-18T09:31:19.262Z,99033.16
2023-04-18T09:33:54.590Z,99028.81
2023-04-18T09:36:29.210Z,99024.44
2023-04-18T09:38:57.180Z,99024.44
2023-04-18T09:41:24.269Z,99025.22
2023-04-18T09:44:07.960Z,99041.81
2023-04-18T09:46:34.854Z,99032.28
2023-04-18T09:49:02.311Z,99030.50
2023-04-18T09:51:31.533Z,99029.66
2023-04-18T09:53:58.440Z,99034.75
2023-04-18T09:56:28.058Z,99022.66
2023-04-18T09:59:09.251Z,99021.78
2023-04-18T10:01:36.876Z,99036.56
2023-04-18T10:04:08.018Z,99025.13
2023-04-18T10:06:38.723Z,99034.59
2023-04-18T10:09:06.554Z,99024.09
2023-04-18T10:11:33.650Z,99027.47
2023-04-18T10:14:08.018Z,99033.56
2023-04-18T10:16:36.393Z,99031.75
2023-04-18T10:19:25.305Z,99035.78
2023-04-18T10:21:59.756Z,99036.88
2023-04-18T10:24:47.671Z,99038.41
2023-04-18T10:27:15.322Z,99036.84
2023-04-18T10:29:54.678Z,99042.69
2023-04-18T10:32:24.219Z,99040.88
2023-04-18T10:34:53.614Z,99048.81
2023-04-18T10:37:20.687Z,99034.25
2023-04-18T10:39:58.454Z,99039.56
2023-04-18T10:42:48.383Z,99035.03
2023-04-18T10:45:22.867Z,99038.59
2023-04-18T10:47:50.768Z,99034.44
2023-04-18T10:50:18.211Z,99028.59
2023-04-18T10:52:45.069Z,99033.78
2023-04-18T10:55:16.948Z,99035.41
2023-04-18T10:57:48.864Z,99035.38
2023-04-18T11:00:17.821Z,99026.59
2023-04-18T11:02:57.956Z,99027.44
2023-04-18T11:05:29.315Z,99028.22
2023-04-18T11:07:56.426Z,99034.25
2023-04-18T11:10:25.839Z,99029.03
2023-04-18T11:12:53.690Z,99022.94
2023-04-18T11:15:23.309Z,99015.88
2023-04-18T11:17:57.464Z,99017.44
2023-04-18T11:20:25.030Z,99021.78
2023-04-18T11:23:00.063Z,99019.03
2023-04-18T11:25:36.604Z,99017.16
2023-04-18T11:28:04.839Z,99026.84
2023-04-18T11:30:41.853Z,99027.69
2023-04-18T11:33:12.899Z,99024.22
2023-04-18T11:35:41.886Z,99022.81
2023-04-18T11:38:10.603Z,99024.56
2023-04-18T11:40:38.147Z,99021.28
2023-04-18T11:43:07.260Z,99013.44
2023-04-18T11:45:34.264Z,99021.25
2023-04-18T11:48:01.537Z,99016.09
2023-04-18T11:50:28.442Z,99011.78
2023-04-18T11:52:56.171Z,99014.19
2023-04-18T11:55:25.369Z,99018.47
2023-04-18T11:57:59.653Z,99007.03
2023-04-18T12:00:37.748Z,99009.59
2023-04-18T12:03:08.446Z,99002.66
2023-04-18T12:05:38.456Z,99008.16
2023-04-18T12:08:13.814Z,99019.81
2023-04-18T12:10:48.478Z,99003.91
2023-04-18T12:13:15.405Z,99001.56
2023-04-18T12:15:46.666Z,99001.63
2023-04-18T12:18:15.465Z,99009.66
2023-04-18T12:20:52.514Z,98999.44
2023-04-18T12:23:40.383Z,99004.34
2023-04-18T12:26:23.061Z,98990.78
2023-04-18T12:28:51.481Z,98999.41
2023-04-18T12:31:18.353Z,99000.78
2023-04-18T12:33:45.310Z,98991.25
2023-04-18T12:36:12.148Z,98995.44
2023-04-18T12:38:38.939Z,98993.69
2023-04-18T12:41:06.188Z,98986.06
2023-04-18T12:43:33.112Z,98987.59
2023-04-18T12:46:00.169Z,98983.56
2023-04-18T12:48:27.034Z,98984.50
2023-04-18T12:50:53.845Z,98977.94
2023-04-18T12:53:20.666Z,98985.69
2023-04-18T12:55:47.595Z,98978.03
2023-04-18T12:58:18.692Z,98984.91
2023-04-18T13:00:46.035Z,98975.38
2023-04-18T13:03:13.598Z,98983.53
2023-04-18T13:05:41.193Z,98982.53
2023-04-18T13:08:16.769Z,98986.22
2023-04-18T13:10:46.318Z,98984.41
2023-04-18T13:13:13.277Z,98978.44
2023-04-18T13:15:40.164Z,98978.50
2023-04-18T13:18:07.222Z,98976.81
2023-04-18T13:20:34.866Z,98973.34
2023-04-18T13:23:03.310Z,98976.00
2023-04-18T13:25:30.171Z,98980.34
2023-04-18T13:27:58.648Z,98974.31
2023-04-18T13:30:25.739Z,98978.59
2023-04-18T13:32:52.746Z,98981.34
2023-04-18T13:35:19.629Z,98981.25
2023-04-18T13:37:46.440Z,98979.56
2023-04-18T13:40:13.814Z,98978.59
2023-04-18T13:42:40.655Z,98974.31
2023-04-18T13:45:07.888Z,98974.34
2023-04-18T13:47:35.147Z,98974.31
2023-04-18T13:50:02.129Z,98970.03
2023-04-18T13:52:29.031Z,98979.53
2023-04-18T13:54:55.947Z,98982.97
2023-04-18T13:57:23.420Z,98976.91
2023-04-18T13:59:50.283Z,98978.63
2023-04-18T14:02:17.408Z,98976.03
2023-04-18T14:04:44.664Z,98976.81
2023-04-18T14:07:11.617Z,98969.06
2023-04-18T14:09:38.513Z,98973.34
2023-04-18T14:12:08.367Z,98970.84
2023-04-18T14:14:35.287Z,98974.31
2023-04-18T14:17:02.181Z,98971.72
2023-04-18T14:19:29.747Z,98976.03
2023-04-18T14:21:56.593Z,98981.25
2023-04-18T14:24:23.453Z,98984.72
2023-04-18T14:26:53.096Z,98984.75
2023-04-18T14:29:19.853Z,98987.47
2023-04-18T14:31:46.792Z,98990.16
2023-04-18T14:34:13.663Z,98986.75
2023-04-18T14:36:40.963Z,98998.84
2023-04-18T14:39:08.543Z,98996.25
2023-04-18T14:41:35.362Z,98999.78
2023-04-18T14:44:03.638Z,99004.09
2023-04-18T14:46:30.993Z,98997.25
2023-04-18T14:48:58.087Z,98993.81
2023-04-18T14:51:24.919Z,98999.81
2023-04-18T14:53:51.846Z,98997.19
2023-04-18T14:56:21.254Z,98994.56
2023-04-18T14:58:48.253Z,99000.50
2023-04-18T15:01:15.203Z,99005.72
2023-04-18T15:03:42.354Z,98996.16
2023-04-18T15:06:09.186Z,98999.69
2023-04-18T15:08:36.246Z,98995.28
2023-04-18T15:11:07.560Z,98999.50
2023-04-18T15:13:34.798Z,98995.19
2023-04-18T15:16:02.048Z,98999.63
2023-04-18T15:18:29.022Z,98996.91
2023-04-18T15:20:57.130Z,99000.41
2023-04-18T15:23:24.135Z,99004.78
2023-04-18T15:25:51.094Z,99000.47
2023-04-18T15:28:18.759Z,99005.66
2023-04-18T15:30:46.066Z,99008.28
2023-04-18T15:33:13.781Z,99012.59
2023-04-18T15:35:40.622Z,99010.03
2023-04-18T15:38:07.819Z,99002.25
2023-04-18T15:40:36.366Z,99013.59
2023-04-18T15:43:03.314Z,99006.72
2023-04-18T15:45:30.580Z,99010.13
2023-04-18T15:47:57.553Z,99004.88
2023-04-18T15:50:24.491Z,99007.50
2023-04-18T15:52:51.446Z,99003.13
2023-04-18T15:55:18.361Z,99006.59
2023-04-18T15:57:45.384Z,99015.38
2023-04-18T16:00:16.334Z,99010.91
2023-04-18T16:02:45.954Z,99016.19
2023-04-18T16:05:14.089Z,99024.06
2023-04-18T16:07:42.666Z,99031.06
2023-04-18T16:10:11.226Z,99027.66
2023-04-18T16:12:39.294Z,99024.22
2023-04-18T16:15:08.798Z,99031.09
2023-04-18T16:17:36.968Z,99024.28
2023-04-18T16:20:06.274Z,99030.41
2023-04-18T16:22:33.663Z,99036.50
2023-04-18T16:25:00.560Z,99035.69
2023-04-18T16:27:27.476Z,99035.63
2023-04-18T16:29:54.684Z,99036.50
2023-04-18T16:32:21.702Z,99046.91
2023-04-18T16:34:48.724Z,99036.50
2023-04-18T16:37:16.291Z,99043.44
2023-04-18T16:39:43.651Z,99051.28
2023-04-18T16:42:11.038Z,99053.91
2023-04-18T16:44:39.587Z,99049.59
2023-04-18T16:47:08.406Z,99052.22
2023-04-18T16:49:35.838Z,99059.19
2023-04-18T16:52:02.841Z,99053.09
2023-04-18T16:54:29.979Z,99054.81
2023-04-18T16:56:57.228Z,99053.97
2023-04-18T16:59:24.481Z,99050.47
2023-04-18T17:01:51.445Z,99060.06
2023-04-18T17:04:18.463Z,99053.09
2023-04-18T17:06:45.550Z,99070.47
2023-04-18T17:09:14.661Z,99065.28
2023-04-18T17:11:41.929Z,99061.78
2023-04-18T17:14:09.337Z,99076.53
2023-04-18T17:16:39.063Z,99071.34
2023-04-18T17:19:06.488Z,99085.22
2023-04-18T17:21:34.827Z,99078.28
2023-04-18T17:24:03.939Z,99083.47
2023-04-18T17:26:31.266Z,99084.34
2023-04-18T17:28:58.563Z,99080.88
2023-04-18T17:31:25.456Z,99080.00
2023-04-18T17:33:53.082Z,99075.63
2023-04-18T17:36:20.089Z,99078.22
2023-04-18T17:38:49.606Z,99088.66
2023-04-18T17:41:21.572Z,99089.50
2023-04-18T17:43:50.820Z,99091.22
2023-04-18T17:46:17.994Z,99086.00
2023-04-18T17:48:44.874Z,99092.06
2023-04-18T17:51:11.746Z,99093.81
2023-04-18T17:53:38.536Z,99091.19
2023-04-18T17:56:05.553Z,99085.97
2023-04-18T17:58:32.384Z,99100.69
2023-04-18T18:00:59.260Z,99104.16
2023-04-18T18:03:26.233Z,99105.03
2023-04-18T18:05:55.099Z,99104.16
2023-04-18T18:08:22.798Z,99118.91
2023-04-18T18:10:50.015Z,99115.41
2023-04-18T18:13:16.972Z,99111.06
2023-04-18T18:15:43.957Z,99115.38
2023-04-18T18:18:11.160Z,99117.97
2023-04-18T18:20:38.176Z,99119.72
2023-04-18T18:23:04.990Z,99123.22
2023-04-18T18:25:31.877Z,99119.72
2023-04-18T18:27:58.693Z,99119.69
2023-04-18T18:30:25.589Z,99122.28
2023-04-18T18:32:53.634Z,99119.66
2023-04-18T18:35:20.839Z,99119.66
2023-04-18T18:37:47.905Z,99120.50
2023-04-18T18:40:15.213Z,99124.88
2023-04-18T18:42:42.738Z,99131.69
2023-04-18T18:45:10.085Z,99129.94
2023-04-18T18:47:39.587Z,99123.88
2023-04-18T18:50:07.808Z,99126.47
2023-04-18T18:52:34.685Z,99136.97
2023-04-18T18:55:01.680Z,99127.31
2023-04-18T18:57:28.594Z,99132.50
2023-04-18T18:59:56.029Z,99129.09
2023-04-18T19:02:23.411Z,99135.97
2023-04-18T19:04:50.788Z,99135.97
2023-04-18T19:07:17.890Z,99135.97
2023-04-18T19:09:46.553Z,99136.00
2023-04-18T19:12:13.465Z,99127.34
2023-04-18T19:14:42.263Z,99132.53
2023-04-18T19:17:09.386Z,99130.78
2023-04-18T19:19:36.358Z,99134.25
2023-04-18T19:22:03.397Z,99133.38
2023-04-18T19:24:32.147Z,99145.56
2023-04-18T19:26:59.863Z,99133.34
2023-04-18T19:29:26.889Z,99146.38
2023-04-18T19:31:53.900Z,99146.34
2023-04-18T19:34:22.298Z,99144.59
2023-04-18T19:36:49.309Z,99145.44
2023-04-18T19:39:17.539Z,99137.59
2023-04-18T19:41:44.474Z,99137.59
2023-04-18T19:44:11.286Z,99135.03
2023-04-18T19:46:38.287Z,99133.28
2023-04-18T19:49:05.211Z,99136.78
2023-04-18T19:51:34.494Z,99129.81
2023-04-18T19:54:01.638Z,99131.53
2023-04-18T19:56:28.456Z,99134.13
2023-04-18T19:58:55.805Z,99136.81
2023-04-18T20:01:24.299Z,99138.47
2023-04-18T20:03:51.647Z,99135.06
2023-04-18T20:06:18.717Z,99129.78
2023-04-18T20:08:46.359Z,99130.72
2023-04-18T20:11:14.395Z,99135.03
2023-04-18T20:13:41.684Z,99131.53
2023-04-18T20:16:09.384Z,99128.06
2023-04-18T20:18:41.726Z,99137.59
2023-04-18T20:21:10.084Z,99123.72
2023-04-18T20:23:37.680Z,99134.13
2023-04-18T20:26:04.740Z,99132.41
2023-04-18T20:28:32.101Z,99128.91
2023-04-18T20:31:06.840Z,99124.59
2023-04-18T20:33:33.701Z,99125.44
2023-04-18T20:36:00.572Z,99128.88
2023-04-18T20:38:29.668Z,99132.34
2023-04-18T20:40:59.015Z,99128.00
2023-04-18T20:43:26.161Z,99133.22
2023-04-18T20:45:54.032Z,99128.88
2023-04-18T20:48:21.434Z,99128.03
2023-04-18T20:50:51.537Z,99117.56
2023-04-18T20:53:26.164Z,99132.28
2023-04-18T20:55:53.136Z,99127.09
2023-04-18T20:58:20.056Z,99133.16
2023-04-18T21:00:48.432Z,99124.44
2023-04-18T21:03:16.639Z,99126.22
2023-04-18T21:05:44.689Z,99121.84
2023-04-18T21:08:19.136Z,99129.66
2023-04-18T21:10:45.929Z,99123.56
2023-04-18T21:13:12.764Z,99126.13
2023-04-18T21:15:41.983Z,99126.16
2023-04-18T21:18:08.844Z,99117.50
2023-04-18T21:20:37.016Z,99130.50
2023-04-18T21:23:03.947Z,99121.84
2023-04-18T21:25:30.796Z,99124.41
2023-04-18T21:27:57.660Z,99130.53
2023-04-18T21:30:24.473Z,99124.41
2023-04-18T21:32:51.698Z,99118.25
2023-04-18T21:35:20.197Z,99115.69
2023-04-18T21:37:48.309Z,99115.72
2023-04-18T21:40:15.293Z,99113.09
2023-04-18T21:42:42.232Z,99105.28
2023-04-18T21:45:11.112Z,99111.41
2023-04-18T21:47:38.569Z,99111.31
2023-04-18T21:50:05.918Z,99112.25
2023-04-18T21:52:32.907Z,99111.38
2023-04-18T21:54:59.734Z,99106.19
2023-04-18T21:57:26.845Z,99120.06
2023-04-18T21:59:54.912Z,99107.97
2023-04-18T22:02:22.079Z,99107.91
2023-04-18T22:04:49.036Z,99114.91
2023-04-18T22:07:16.023Z,99107.09
2023-04-18T22:09:43.552Z,99113.22
2023-04-18T22:12:10.387Z,99119.28
2023-04-18T22:14:37.352Z,99117.50
2023-04-18T22:17:04.968Z,99108.78
2023-04-18T22:19:31.991Z,99121.84
2023-04-18T22:21:59.001Z,99114.88
2023-04-18T22:24:26.132Z,99126.09
2023-04-18T22:26:53.659Z,99110.50
2023-04-18T22:29:20.542Z,99116.59
2023-04-18T22:31:47.412Z,99107.06
2023-04-18T22:34:14.656Z,99111.44
2023-04-18T22:36:42.938Z,99112.31
2023-04-18T22:39:10.029Z,99114.97
2023-04-18T22:41:36.854Z,99105.34
2023-04-18T22:44:04.851Z,99109.63
2023-04-18T22:46:33.009Z,99105.94
2023-04-18T22:48:59.973Z,99100.78
2023-04-18T22:51:28.958Z,99093.94
2023-04-18T22:53:56.632Z,99098.25
2023-04-18T22:56:23.550Z,99094.84
2023-04-18T22:58:50.493Z,99103.50
2023-04-18T23:01:18.020Z,99092.22
2023-04-18T23:03:45.137Z,99096.63
2023-04-18T23:06:12.285Z,99096.63
2023-04-18T23:08:39.167Z,99087.94
2023-04-18T23:11:06.095Z,99086.22
2023-04-18T23:13:34.313Z,99083.63
2023-04-18T23:16:01.347Z,99084.50
2023-04-18T23:18:31.248Z,99086.25
2023-04-18T23:21:00.234Z,99084.50
2023-04-18T23:23:27.120Z,99086.22
2023-04-18T23:25:54.010Z,99073.19
2023-04-18T23:28:20.930Z,99081.84
2023-04-18T23:30:50.197Z,99084.50
2023-04-18T23:33:17.139Z,99081.00
2023-04-18T23:35:44.084Z,99076.69
2023-04-18T23:38:11.135Z,99077.53
2023-04-18T23:40:38.058Z,99084.44
2023-04-18T23:43:04.947Z,99073.97
2023-04-18T23:45:31.775Z,99084.41
2023-04-18T23:47:58.659Z,99074.81
2023-04-18T23:50:25.616Z,99069.63
2023-04-18T23:52:52.500Z,99065.06
2023-04-18T23:55:19.341Z,99065.22
2023-04-18T23:57:46.336Z,99070.28
